createdAt,value
2018-12-20T00:00:01.308Z,7.80
2018-12-20T00:02:28.856Z,7.70
2018-12-20T00:04:56.409Z,7.70
2018-12-20T00:07:24.012Z,7.80
2018-12-20T00:09:51.500Z,7.80
2018-12-20T00:12:18.972Z,7.70
2018-12-20T00:14:46.504Z,7.50
2018-12-20T00:17:19.591Z,7.50
2018-12-20T00:19:47.171Z,7.60
2018-12-20T00:22:14.986Z,7.60
2018-12-20T00:24:42.688Z,7.60
2018-12-20T00:27:10.371Z,7.70
2018-12-20T00:29:38.072Z,7.80
2018-12-20T00:32:05.580Z,7.80
2018-12-20T00:34:33.159Z,7.70
2018-12-20T00:37:00.814Z,7.70
2018-12-20T00:39:28.617Z,7.70
2018-12-20T00:41:56.216Z,7.80
2018-12-20T00:44:24.010Z,7.70
2018-12-20T00:46:51.578Z,7.70
2018-12-20T00:49:19.203Z,7.60
2018-12-20T00:51:46.759Z,7.60
2018-12-20T00:54:14.307Z,7.60
2018-12-20T00:56:41.958Z,7.80
2018-12-20T00:59:09.653Z,7.60
2018-12-20T01:01:37.268Z,7.60
2018-12-20T01:04:04.762Z,7.70
2018-12-20T01:06:32.425Z,7.80
2018-12-20T01:08:59.980Z,7.80
2018-12-20T01:11:27.787Z,7.90
2018-12-20T01:13:55.380Z,7.90
2018-12-20T01:16:22.931Z,7.90
2018-12-20T01:18:50.605Z,7.90
2018-12-20T01:21:18.181Z,7.90
2018-12-20T01:23:45.905Z,7.90
2018-12-20T01:26:13.632Z,8.00
2018-12-20T01:28:41.344Z,7.90
2018-12-20T01:31:08.952Z,7.90
2018-12-20T01:33:36.563Z,7.80
2018-12-20T01:36:04.276Z,7.80
2018-12-20T01:38:32.106Z,7.90
2018-12-20T01:40:59.801Z,7.80
2018-12-20T01:43:27.367Z,7.80
2018-12-20T01:45:54.865Z,7.70
2018-12-20T01:48:22.588Z,7.60
2018-12-20T01:50:50.335Z,7.40
2018-12-20T01:53:18.151Z,7.40
2018-12-20T01:55:45.739Z,7.50
2018-12-20T01:58:13.304Z,7.50
2018-12-20T02:00:40.842Z,7.40
2018-12-20T02:03:08.585Z,7.50
2018-12-20T02:05:36.080Z,7.60
2018-12-20T02:08:03.961Z,7.60
2018-12-20T02:10:31.634Z,7.50
2018-12-20T02:12:59.315Z,7.50
2018-12-20T02:15:26.890Z,7.60
2018-12-20T02:17:54.452Z,7.60
2018-12-20T02:20:22.618Z,7.70
2018-12-20T02:22:50.193Z,7.60
2018-12-20T02:25:17.790Z,7.60
2018-12-20T02:27:45.284Z,7.50
2018-12-20T02:30:12.887Z,7.50
2018-12-20T02:32:40.565Z,7.40
2018-12-20T02:35:08.263Z,7.50
2018-12-20T02:37:35.804Z,7.60
2018-12-20T02:40:03.660Z,7.50
2018-12-20T02:42:31.415Z,7.40
2018-12-20T02:44:58.916Z,7.60
2018-12-20T02:47:29.070Z,7.60
2018-12-20T02:49:56.781Z,7.60
2018-12-20T02:52:24.425Z,7.60
2018-12-20T02:54:52.090Z,7.60
2018-12-20T02:57:19.811Z,7.50
2018-12-20T02:59:47.375Z,7.20
2018-12-20T03:02:15.188Z,7.10
2018-12-20T03:04:42.882Z,7.20
2018-12-20T03:07:10.539Z,7.20
2018-12-20T03:09:38.068Z,7.20
2018-12-20T03:12:05.572Z,7.30
2018-12-20T03:14:33.096Z,7.40
2018-12-20T03:17:00.668Z,7.50
2018-12-20T03:19:28.269Z,7.40
2018-12-20T03:21:55.836Z,7.40
2018-12-20T03:24:23.332Z,7.40
2018-12-20T03:26:50.972Z,7.40
2018-12-20T03:29:18.889Z,7.40
2018-12-20T03:31:46.554Z,7.30
2018-12-20T03:34:14.092Z,7.40
2018-12-20T03:36:42.064Z,7.10
2018-12-20T03:39:09.573Z,7.10
2018-12-20T03:41:37.119Z,7.10
2018-12-20T03:44:04.881Z,7.30
2018-12-20T03:46:33.813Z,7.50
2018-12-20T03:49:01.450Z,7.40
2018-12-20T03:51:28.941Z,7.40
2018-12-20T03:53:57.145Z,7.60
2018-12-20T03:56:24.915Z,7.70
2018-12-20T03:58:52.737Z,7.90
2018-12-20T04:01:20.522Z,7.80
2018-12-20T04:03:48.063Z,7.70
2018-12-20T04:06:15.638Z,7.60
2018-12-20T04:08:43.184Z,7.50
2018-12-20T04:11:11.052Z,7.40
2018-12-20T04:13:39.067Z,7.50
2018-12-20T04:16:06.624Z,7.40
2018-12-20T04:18:34.085Z,7.30
2018-12-20T04:21:01.595Z,7.40
2018-12-20T04:23:29.307Z,7.60
2018-12-20T04:25:57.046Z,7.70
2018-12-20T04:28:25.597Z,7.80
2018-12-20T04:30:53.148Z,7.90
2018-12-20T04:33:21.082Z,7.90
2018-12-20T04:35:48.758Z,7.90
2018-12-20T04:38:16.634Z,7.90
2018-12-20T04:40:44.161Z,7.90
2018-12-20T04:43:11.850Z,7.90
2018-12-20T04:45:46.686Z,7.80
2018-12-20T04:48:08.966Z,7.90
2018-12-20T04:50:36.570Z,7.90
2018-12-20T04:53:04.379Z,8.10
2018-12-20T04:55:38.605Z,8.20
2018-12-20T04:58:06.299Z,8.20
2018-12-20T05:00:34.066Z,8.10
2018-12-20T05:03:01.758Z,7.90
2018-12-20T05:05:29.372Z,8.00
2018-12-20T05:07:57.106Z,8.00
2018-12-20T05:10:24.639Z,8.00
2018-12-20T05:12:52.142Z,7.60
2018-12-20T05:15:20.744Z,7.60
2018-12-20T05:17:48.415Z,7.70
2018-12-20T05:20:16.042Z,7.70
2018-12-20T05:22:44.551Z,7.70
2018-12-20T05:25:12.044Z,7.70
2018-12-20T05:27:39.565Z,7.60
2018-12-20T05:30:07.378Z,7.50
2018-12-20T05:32:34.996Z,7.50
2018-12-20T05:35:03.288Z,7.40
2018-12-20T05:37:30.905Z,7.40
2018-12-20T05:39:59.393Z,7.50
2018-12-20T05:42:27.156Z,7.40
2018-12-20T05:44:54.657Z,7.30
2018-12-20T05:47:22.414Z,7.40
2018-12-20T05:49:50.017Z,7.30
2018-12-20T05:52:17.601Z,7.30
2018-12-20T05:54:45.108Z,7.30
2018-12-20T05:57:12.676Z,7.20
2018-12-20T05:59:40.405Z,7.40
2018-12-20T06:02:07.994Z,7.40
2018-12-20T06:04:35.783Z,7.40
2018-12-20T06:07:03.388Z,7.40
2018-12-20T06:09:31.058Z,7.40
2018-12-20T06:11:58.639Z,7.50
2018-12-20T06:14:26.513Z,7.50
2018-12-20T06:16:54.215Z,7.10
2018-12-20T06:19:21.881Z,7.10
2018-12-20T06:21:49.422Z,7.20
2018-12-20T06:24:16.911Z,7.20
2018-12-20T06:26:44.369Z,7.10
2018-12-20T06:29:11.887Z,7.10
2018-12-20T06:31:39.647Z,7.20
2018-12-20T06:34:07.154Z,7.30
2018-12-20T06:36:34.645Z,7.40
2018-12-20T06:39:02.280Z,7.40
2018-12-20T06:41:30.583Z,7.50
2018-12-20T06:43:58.086Z,7.50
2018-12-20T06:46:25.675Z,7.70
2018-12-20T06:48:53.138Z,7.60
2018-12-20T06:51:20.657Z,7.70
2018-12-20T06:53:48.147Z,7.80
2018-12-20T06:56:15.679Z,7.80
2018-12-20T06:58:43.210Z,7.90
2018-12-20T07:01:10.731Z,7.90
2018-12-20T07:03:38.242Z,8.00
2018-12-20T07:06:05.914Z,8.00
2018-12-20T07:08:33.452Z,8.00
2018-12-20T07:11:01.016Z,7.80
2018-12-20T07:13:28.567Z,7.80
2018-12-20T07:15:56.098Z,7.80
2018-12-20T07:18:23.580Z,7.80
2018-12-20T07:20:51.195Z,7.80
2018-12-20T07:23:18.663Z,7.80
2018-12-20T07:25:46.794Z,8.00
2018-12-20T07:28:14.307Z,8.10
2018-12-20T07:30:41.797Z,8.10
2018-12-20T07:33:09.325Z,8.10
2018-12-20T07:35:36.854Z,8.10
2018-12-20T07:38:04.374Z,8.00
2018-12-20T07:40:31.894Z,8.00
2018-12-20T07:42:59.409Z,7.90
2018-12-20T07:45:26.879Z,7.90
2018-12-20T07:47:54.401Z,7.80
2018-12-20T07:50:21.858Z,7.70
2018-12-20T07:52:49.338Z,7.50
2018-12-20T07:55:16.900Z,7.60
2018-12-20T07:57:44.615Z,7.60
2018-12-20T08:00:12.239Z,7.60
2018-12-20T08:02:39.801Z,7.60
2018-12-20T08:05:07.449Z,7.80
2018-12-20T08:07:35.341Z,7.90
2018-12-20T08:10:03.273Z,8.00
2018-12-20T08:12:31.774Z,8.00
2018-12-20T08:14:59.225Z,7.90
2018-12-20T08:17:26.756Z,7.90
2018-12-20T08:19:54.332Z,8.00
2018-12-20T08:22:21.822Z,8.20
2018-12-20T08:24:49.268Z,8.20
2018-12-20T08:27:16.792Z,8.20
2018-12-20T08:29:44.280Z,8.10
2018-12-20T08:32:11.756Z,7.80
2018-12-20T08:34:39.241Z,7.70
2018-12-20T08:37:06.748Z,7.70
2018-12-20T08:39:34.271Z,7.50
2018-12-20T08:42:01.777Z,7.50
2018-12-20T08:44:29.362Z,7.50
2018-12-20T08:46:58.608Z,7.80
2018-12-20T08:49:26.118Z,7.90
2018-12-20T08:51:53.756Z,8.10
2018-12-20T08:54:21.362Z,7.90
2018-12-20T08:56:48.922Z,8.10
2018-12-20T08:59:16.454Z,8.10
2018-12-20T09:01:43.996Z,8.00
2018-12-20T09:04:11.553Z,8.00
2018-12-20T09:06:40.002Z,8.10
2018-12-20T09:09:07.549Z,8.20
2018-12-20T09:11:35.052Z,8.30
2018-12-20T09:14:02.590Z,8.30
2018-12-20T09:16:30.047Z,8.10
2018-12-20T09:18:57.561Z,8.10
2018-12-20T09:21:25.168Z,8.30
2018-12-20T09:23:52.734Z,8.40
2018-12-20T09:26:20.251Z,8.50
2018-12-20T09:28:47.743Z,8.50
2018-12-20T09:31:15.265Z,8.50
2018-12-20T09:33:42.780Z,8.40
2018-12-20T09:36:10.343Z,8.30
2018-12-20T09:38:37.863Z,8.30
2018-12-20T09:41:05.418Z,8.30
2018-12-20T09:43:33.046Z,8.20
2018-12-20T09:46:00.561Z,8.20
2018-12-20T09:48:28.391Z,8.20
2018-12-20T09:50:55.941Z,8.10
2018-12-20T09:53:23.509Z,8.30
2018-12-20T09:55:51.003Z,8.60
2018-12-20T09:58:18.504Z,8.50
2018-12-20T10:00:46.053Z,8.30
2018-12-20T10:03:13.604Z,8.20
2018-12-20T10:05:41.149Z,8.20
2018-12-20T10:08:08.703Z,8.20
2018-12-20T10:10:36.237Z,8.30
2018-12-20T10:13:03.792Z,8.40
2018-12-20T10:15:31.292Z,8.40
2018-12-20T10:17:58.838Z,8.20
2018-12-20T10:20:26.470Z,7.80
2018-12-20T10:22:53.979Z,8.00
2018-12-20T10:25:21.487Z,8.20
2018-12-20T10:27:49.023Z,8.20
2018-12-20T10:30:16.516Z,8.20
2018-12-20T10:32:44.046Z,8.40
2018-12-20T10:35:11.583Z,8.40
2018-12-20T10:37:39.144Z,8.40
2018-12-20T10:40:06.827Z,8.30
2018-12-20T10:42:34.389Z,8.10
2018-12-20T10:45:02.935Z,8.10
2018-12-20T10:47:30.389Z,8.20
2018-12-20T10:49:57.903Z,8.40
2018-12-20T10:52:25.412Z,8.50
2018-12-20T10:54:52.917Z,8.40
2018-12-20T10:57:20.494Z,8.40
2018-12-20T10:59:48.008Z,8.40
2018-12-20T11:02:21.214Z,8.50
2018-12-20T11:04:54.430Z,8.60
2018-12-20T11:07:27.652Z,8.80
2018-12-20T11:10:00.787Z,8.70
2018-12-20T11:12:33.962Z,8.70
2018-12-20T11:15:01.533Z,8.80
2018-12-20T11:17:37.126Z,8.80
2018-12-20T11:19:58.614Z,8.80
2018-12-20T11:22:26.311Z,8.70
2018-12-20T11:24:53.851Z,8.80
2018-12-20T11:27:21.353Z,8.80
2018-12-20T11:29:48.881Z,9.10
2018-12-20T11:32:16.476Z,8.70
2018-12-20T11:34:44.289Z,8.90
2018-12-20T11:37:11.904Z,8.90
2018-12-20T11:39:39.422Z,8.90
2018-12-20T11:42:06.988Z,8.90
2018-12-20T11:44:34.533Z,9.20
2018-12-20T11:47:02.058Z,9.20
2018-12-20T11:49:29.601Z,9.40
2018-12-20T11:51:57.132Z,9.50
2018-12-20T11:54:24.612Z,9.80
2018-12-20T11:56:52.089Z,9.90
2018-12-20T11:59:19.577Z,9.90
2018-12-20T12:01:47.051Z,9.70
2018-12-20T12:04:14.606Z,9.70
2018-12-20T12:06:42.182Z,9.90
2018-12-20T12:09:09.698Z,10.00
2018-12-20T12:11:37.225Z,10.00
2018-12-20T12:14:04.749Z,10.00
2018-12-20T12:16:32.373Z,10.10
2018-12-20T12:18:59.911Z,10.10
2018-12-20T12:21:27.465Z,10.40
2018-12-20T12:23:55.038Z,10.50
2018-12-20T12:26:22.681Z,10.30
2018-12-20T12:28:50.178Z,10.30
2018-12-20T12:31:17.687Z,10.60
2018-12-20T12:33:45.198Z,10.80
2018-12-20T12:36:14.875Z,10.90
2018-12-20T12:38:42.405Z,10.90
2018-12-20T12:41:10.042Z,11.00
2018-12-20T12:43:37.553Z,10.80
2018-12-20T12:46:05.202Z,11.00
2018-12-20T12:48:32.729Z,11.10
2018-12-20T12:51:00.234Z,10.70
2018-12-20T12:53:27.821Z,10.30
2018-12-20T12:55:55.429Z,10.20
2018-12-20T12:58:22.992Z,10.40
2018-12-20T13:00:50.509Z,10.40
2018-12-20T13:03:18.064Z,10.40
2018-12-20T13:05:45.607Z,10.30
2018-12-20T13:08:13.367Z,10.30
2018-12-20T13:10:40.891Z,10.30
2018-12-20T13:13:08.392Z,10.30
2018-12-20T13:15:35.895Z,10.20
2018-12-20T13:18:06.128Z,10.10
2018-12-20T13:20:33.082Z,10.10
2018-12-20T13:23:00.577Z,10.00
2018-12-20T13:25:28.105Z,10.20
2018-12-20T13:27:55.626Z,10.30
2018-12-20T13:30:23.147Z,10.20
2018-12-20T13:32:50.747Z,10.00
2018-12-20T13:35:18.338Z,9.90
2018-12-20T13:37:46.097Z,9.90
2018-12-20T13:40:13.682Z,9.90
2018-12-20T13:42:41.261Z,9.90
2018-12-20T13:45:08.784Z,9.70
2018-12-20T13:47:36.327Z,9.80
2018-12-20T13:50:04.741Z,9.80
2018-12-20T13:52:32.943Z,9.90
2018-12-20T13:55:00.633Z,9.90
2018-12-20T13:57:28.170Z,9.90
2018-12-20T13:59:55.818Z,9.80
2018-12-20T14:02:23.371Z,9.70
2018-12-20T14:04:50.930Z,9.80
2018-12-20T14:07:18.651Z,9.50
2018-12-20T14:09:46.156Z,9.70
2018-12-20T14:12:13.704Z,9.80
2018-12-20T14:14:41.333Z,10.00
2018-12-20T14:17:08.839Z,10.00
2018-12-20T14:19:36.407Z,10.20
2018-12-20T14:22:03.953Z,10.20
2018-12-20T14:24:31.430Z,10.20
2018-12-20T14:26:59.111Z,9.90
2018-12-20T14:29:26.728Z,9.80
2018-12-20T14:31:54.577Z,9.90
2018-12-20T14:34:22.148Z,9.80
2018-12-20T14:36:49.784Z,9.80
2018-12-20T14:39:17.391Z,9.60
2018-12-20T14:41:44.905Z,9.60
2018-12-20T14:44:12.422Z,9.40
2018-12-20T14:46:40.015Z,9.40
2018-12-20T14:49:07.568Z,9.50
2018-12-20T14:51:35.177Z,9.40
2018-12-20T14:54:02.962Z,9.40
2018-12-20T14:56:30.526Z,9.20
2018-12-20T14:58:58.137Z,9.00
2018-12-20T15:01:25.689Z,9.00
2018-12-20T15:03:53.263Z,9.20
2018-12-20T15:06:20.801Z,9.20
2018-12-20T15:08:48.342Z,9.30
2018-12-20T15:11:15.941Z,9.30
2018-12-20T15:13:43.558Z,9.20
2018-12-20T15:16:11.275Z,9.20
2018-12-20T15:18:38.839Z,9.40
2018-12-20T15:21:06.349Z,9.70
2018-12-20T15:23:33.925Z,9.50
2018-12-20T15:26:01.519Z,9.50
2018-12-20T15:28:29.075Z,9.60
2018-12-20T15:30:56.623Z,9.70
2018-12-20T15:33:24.151Z,9.90
2018-12-20T15:35:51.848Z,9.80
2018-12-20T15:38:19.448Z,9.60
2018-12-20T15:40:47.122Z,9.70
2018-12-20T15:43:14.655Z,9.40
2018-12-20T15:45:42.213Z,9.30
2018-12-20T15:48:09.715Z,9.30
2018-12-20T15:50:44.005Z,9.30
2018-12-20T15:53:12.010Z,9.30
2018-12-20T15:55:39.611Z,9.20
2018-12-20T15:58:07.156Z,9.30
2018-12-20T16:00:34.738Z,9.20
2018-12-20T16:03:02.517Z,9.20
2018-12-20T16:05:30.050Z,9.30
2018-12-20T16:08:03.193Z,9.10
2018-12-20T16:10:30.746Z,9.20
2018-12-20T16:12:58.303Z,9.10
2018-12-20T16:15:25.894Z,9.00
2018-12-20T16:17:53.526Z,8.80
2018-12-20T16:20:21.107Z,8.60
2018-12-20T16:22:48.654Z,8.70
2018-12-20T16:25:16.191Z,8.70
2018-12-20T16:27:43.824Z,9.00
2018-12-20T16:30:11.446Z,8.90
2018-12-20T16:32:39.054Z,9.10
2018-12-20T16:35:07.482Z,9.10
2018-12-20T16:37:35.101Z,9.20
2018-12-20T16:40:03.247Z,9.20
2018-12-20T16:42:30.851Z,9.20
2018-12-20T16:44:58.432Z,9.10
2018-12-20T16:47:26.028Z,9.10
2018-12-20T16:49:53.752Z,9.00
2018-12-20T16:52:21.363Z,9.20
2018-12-20T16:54:48.989Z,9.30
2018-12-20T16:57:16.528Z,9.40
2018-12-20T16:59:44.161Z,9.40
2018-12-20T17:02:11.766Z,9.20
2018-12-20T17:04:39.338Z,9.30
2018-12-20T17:07:06.904Z,9.20
2018-12-20T17:09:34.450Z,9.30
2018-12-20T17:12:02.025Z,9.40
2018-12-20T17:14:29.675Z,9.40
2018-12-20T17:16:57.368Z,9.40
2018-12-20T17:19:24.973Z,9.30
2018-12-20T17:21:52.526Z,9.40
2018-12-20T17:24:20.274Z,9.40
2018-12-20T17:26:47.894Z,9.30
2018-12-20T17:29:15.529Z,9.10
2018-12-20T17:31:43.391Z,9.00
2018-12-20T17:34:10.983Z,8.90
2018-12-20T17:36:39.418Z,8.90
2018-12-20T17:39:07.699Z,9.00
2018-12-20T17:41:35.267Z,8.90
2018-12-20T17:44:03.361Z,9.00
2018-12-20T17:46:30.966Z,9.00
2018-12-20T17:48:58.826Z,9.00
2018-12-20T17:51:27.119Z,9.00
2018-12-20T17:53:54.720Z,8.90
2018-12-20T17:56:22.291Z,8.80
2018-12-20T17:58:49.875Z,8.80
2018-12-20T18:01:17.418Z,8.80
2018-12-20T18:03:44.966Z,8.80
2018-12-20T18:06:12.510Z,8.80
2018-12-20T18:08:40.107Z,8.80
2018-12-20T18:11:07.814Z,8.90
2018-12-20T18:13:35.410Z,8.80
2018-12-20T18:16:03.124Z,8.90
2018-12-20T18:18:30.680Z,8.90
2018-12-20T18:20:58.433Z,8.80
2018-12-20T18:23:26.091Z,8.80
2018-12-20T18:25:53.631Z,8.90
2018-12-20T18:28:21.170Z,8.90
2018-12-20T18:30:48.929Z,8.70
2018-12-20T18:33:16.490Z,8.60
2018-12-20T18:35:44.094Z,8.60
2018-12-20T18:38:11.700Z,8.70
2018-12-20T18:40:39.264Z,8.60
2018-12-20T18:43:06.831Z,8.60
2018-12-20T18:45:34.565Z,8.60
2018-12-20T18:48:02.163Z,8.50
2018-12-20T18:50:29.857Z,8.30
2018-12-20T18:52:57.362Z,8.40
2018-12-20T18:55:24.901Z,8.30
2018-12-20T18:57:52.551Z,8.40
2018-12-20T19:00:20.102Z,8.50
2018-12-20T19:02:47.679Z,8.40
2018-12-20T19:05:15.306Z,8.40
2018-12-20T19:07:42.880Z,8.30
2018-12-20T19:10:10.501Z,8.40
2018-12-20T19:12:38.054Z,8.30
2018-12-20T19:15:07.324Z,8.30
2018-12-20T19:17:34.908Z,8.40
2018-12-20T19:20:02.743Z,8.30
2018-12-20T19:22:30.432Z,8.30
2018-12-20T19:24:57.991Z,8.30
2018-12-20T19:27:25.594Z,8.30
2018-12-20T19:29:53.158Z,8.30
2018-12-20T19:32:20.996Z,8.30
2018-12-20T19:34:48.676Z,8.30
2018-12-20T19:37:16.243Z,8.10
2018-12-20T19:39:45.407Z,8.10
2018-12-20T19:42:15.577Z,8.10
2018-12-20T19:44:43.660Z,8.10
2018-12-20T19:47:11.532Z,8.10
2018-12-20T19:49:39.173Z,8.10
2018-12-20T19:52:06.771Z,8.10
2018-12-20T19:54:34.769Z,8.10
2018-12-20T19:57:02.360Z,8.10
2018-12-20T19:59:29.951Z,8.20
2018-12-20T20:02:04.558Z,8.10
2018-12-20T20:04:27.405Z,8.30
2018-12-20T20:06:55.084Z,8.30
2018-12-20T20:09:22.913Z,8.30
2018-12-20T20:11:50.547Z,8.20
2018-12-20T20:14:18.236Z,8.20
2018-12-20T20:16:50.683Z,8.20
2018-12-20T20:19:15.603Z,8.20
2018-12-20T20:21:43.224Z,8.20
2018-12-20T20:24:10.819Z,8.20
2018-12-20T20:26:38.599Z,8.20
2018-12-20T20:29:06.101Z,8.30
2018-12-20T20:31:33.751Z,8.30
2018-12-20T20:34:01.500Z,8.20
2018-12-20T20:36:29.124Z,8.10
2018-12-20T20:39:01.919Z,8.10
2018-12-20T20:41:26.526Z,8.10
2018-12-20T20:43:55.585Z,8.00
2018-12-20T20:46:23.967Z,8.00
2018-12-20T20:48:51.570Z,7.90
2018-12-20T20:51:19.196Z,7.90
2018-12-20T20:53:46.871Z,7.90
2018-12-20T20:56:14.547Z,7.90
2018-12-20T20:58:42.157Z,7.90
2018-12-20T21:01:09.713Z,7.90
2018-12-20T21:03:37.289Z,7.90
2018-12-20T21:06:05.167Z,7.90
2018-12-20T21:08:32.755Z,8.00
2018-12-20T21:11:00.325Z,8.00
2018-12-20T21:13:27.890Z,7.90
2018-12-20T21:15:55.431Z,7.70
2018-12-20T21:18:23.002Z,7.60
2018-12-20T21:20:50.547Z,7.80
2018-12-20T21:23:18.120Z,7.90
2018-12-20T21:25:45.729Z,7.90
2018-12-20T21:28:13.406Z,7.90
2018-12-20T21:30:40.949Z,7.80
2018-12-20T21:33:08.452Z,7.90
2018-12-20T21:35:35.988Z,8.00
2018-12-20T21:38:03.493Z,8.00
2018-12-20T21:40:31.069Z,7.80
2018-12-20T21:42:58.625Z,7.80
2018-12-20T21:45:26.214Z,7.90
2018-12-20T21:47:53.769Z,8.00
2018-12-20T21:50:21.295Z,8.10
2018-12-20T21:52:48.841Z,8.10
2018-12-20T21:55:16.372Z,8.10
2018-12-20T21:57:43.868Z,8.00
2018-12-20T22:00:11.546Z,8.00
2018-12-20T22:02:39.048Z,8.10
2018-12-20T22:05:07.223Z,8.20
2018-12-20T22:07:34.787Z,8.20
2018-12-20T22:10:02.320Z,8.20
2018-12-20T22:12:29.937Z,8.10
2018-12-20T22:14:57.463Z,8.00
2018-12-20T22:17:24.956Z,8.00
2018-12-20T22:19:58.609Z,7.90
2018-12-20T22:22:21.986Z,7.90
2018-12-20T22:24:49.546Z,7.80
2018-12-20T22:27:17.081Z,7.70
2018-12-20T22:29:44.665Z,7.70
2018-12-20T22:32:12.162Z,7.70
2018-12-20T22:34:39.701Z,7.60
2018-12-20T22:37:07.232Z,7.60
2018-12-20T22:39:34.878Z,7.60
2018-12-20T22:42:02.422Z,7.60
2018-12-20T22:44:30.563Z,7.50
2018-12-20T22:46:58.145Z,7.50
2018-12-20T22:49:25.666Z,7.50
2018-12-20T22:51:53.225Z,7.60
2018-12-20T22:54:20.975Z,7.50
2018-12-20T22:56:48.491Z,7.50
2018-12-20T22:59:15.974Z,7.50
2018-12-20T23:01:43.544Z,7.50
2018-12-20T23:04:11.031Z,7.60
2018-12-20T23:06:38.848Z,7.60
2018-12-20T23:09:06.499Z,7.70
2018-12-20T23:11:34.034Z,7.70
2018-12-20T23:14:01.537Z,7.60
2018-12-20T23:16:29.040Z,7.70
2018-12-20T23:18:56.549Z,7.80
2018-12-20T23:21:24.065Z,7.70
2018-12-20T23:23:51.571Z,7.80
2018-12-20T23:26:19.083Z,7.80
2018-12-20T23:28:46.572Z,7.80
2018-12-20T23:31:14.102Z,7.90
2018-12-20T23:33:41.604Z,7.90
2018-12-20T23:36:09.393Z,7.90
2018-12-20T23:38:36.921Z,7.80
2018-12-20T23:41:04.496Z,7.80
2018-12-20T23:43:32.062Z,7.80
2018-12-20T23:45:59.577Z,7.80
2018-12-20T23:48:27.110Z,7.80
2018-12-20T23:50:54.678Z,7.80
2018-12-20T23:53:22.255Z,7.90
2018-12-20T23:55:49.888Z,7.90
2018-12-20T23:58:17.402Z,7.90
